Salisbury, MD

1:08 PM EST on December 06, 2016 (GMT -0500)
Ocean Gateway | | Change Station

Elev 56 ft 38.38 °N, 75.62 °W | Updated 50 seconds ago

Rain
Rain Mist
47.3 °F
Feels Like 47 °F
N
0.0
Wind Variable Wind from NE

Today
High -- | Low -- °F
--% Chance of Precip.
Yesterday
High -- | Low -- °F
Precip. -- in
Pressure 29.94 in
Visibility 4.0 miles
Clouds Mostly Cloudy 6000 ft
Overcast 8000 ft
Windchill 47 °F
Dew Point 45 °F
Humidity 95%
Rainfall in
Snow Depth Not available.
7:05 AM 4:41 PM
Waxing Crescent, 43% visible
METAR KSBY 061754Z 07008KT 4SM RA BR BKN060 OVC080 09/07 A2993 RMK AO2 SLP138 P0006 60006 T00890072 10094 20044 56048
Pressure 29.94 in
Visibility 4.0 miles
Clouds Mostly Cloudy 6000 ft
Overcast 8000 ft
Windchill 47 °F
Dew Point 45 °F
Humidity 95%
Rainfall in
Snow Depth Not available.
7:05 AM 4:41 PM
Waxing Crescent, 43% visible
METAR KSBY 061754Z 07008KT 4SM RA BR BKN060 OVC080 09/07 A2993 RMK AO2 SLP138 P0006 60006 T00890072 10094 20044 56048

10-Day Weather Forecast

Almanac

Astronomy

Dec. 06, 2016 Rise Set
Actual Time
Civil Twilight
Nautical Twilight
Astronomical Twilight
Moon
Length of Visible Light
Length of Day
Tomorrow will be .
, % of the Moon is Illuminated

Today's Extremes

State Highs State Lows

Community

WunderPhotos

Upload Photos

1,955,989 photos uploaded!

WunderBlog® & News

Nearby

Air Quality

  Air Quality AQ Index Pollutant
Not available.

Snow Depth

Station Depth Elevation

Earthquake Activity

City Distance Mag. Time & Date
Minimum magnitude displayed is 2.5.

Coastal Water Temperatures

Place Temperature

Stations

Nearby Weather Stations

Station Location Temp. Windchill Dew Point Humidity Wind Precip. Elev Updated Type
                   

Watches & Warnings

There are currently no watches in effect.